East Texas Regional Airport
KGGG : now visible

Airfield :











YOU CAN JOIN US ON...

 
LOGIN :

Register | Disclaimer

   EN    FR    IT 

 









Legend :    VFR   Marginal VFR   IFR   Intensive IFR   Very Intensive IFR
Visi :
Ceiling :
>= 8 km
>= 3000ft
5 to 8 km
1000 to 3000 ft
1500m to 5 km
500 to 1000 ft
800 to 1500m
200 to 500 ft
< 800m
< 200 ft
Symbols :   Thunderstorms  Fog  Heavy snow  Heavy precipitations  Wind > 20 kt







- Airport Elevation : 365 ft
- IATA code : GGG


KGGG - East Texas Regional

CURRENT METAR :
  • 210553Z AUTO 19007KT 10SM CLR 27/24 A2992 RMK AO2 SLP123 T02670244 10333 20267 403560244 53001

EXPIRED METARs :
  • 210453Z AUTO 18007KT 10SM CLR 28/24 A2992 RMK AO2 SLP122 T02780239
  • 210353Z AUTO 18005KT 10SM CLR 27/24 A2992 RMK AO2 SLP122 T02720239

TAF KGGG
Valid from the 21 at 06:00 until the 22 at 06:00 UTC


210540Z 2106/2206 18007KT P6SM SKC
TEMPO 2111/2115 BKN010
FM211500 21010KT P6SM SCT050 SCT250
FM212200 18005KT P6SM BKN250
FM220200 16004KT P6SM SCT250
KZFW FIR / North America



MET'MAP, your aeronautical weather chart ! - Copyright ORBIFLY December 2007 - Disclaimer

ORBIFLY MET'MAP TEAM :

Programming & Development : Alexandra Zaïnal
Concept & Development : Baudouin d'Aumeries
Co-Development & Prog : Marc-Olivier Méhu
Technical & hardware support : Manuel Goepfert

Contact : metmap@orbifly.com




SOURCES & CREDITS :

   NOAA       Earth
Advisory